Wetterdaten: Mittwoch, 06.05.2015
Datum Zeit Temp. A. Feuchte A. Luftdruck Regen Wind Richtung Richtung Sonnenschein ET UV Solar Taupunkt Windchill Windben Empfang
06.05.2015 00:00 19,9 C 59 % 1009,8 hPa 0,0 l/m 4,0 km/h (1 Bft) W-SW 255 0 min 0,000 mm 0,0 UV-I 0 W/m 11,6 C 19,9 C 7,9 km/h (2 Bft) 0,00 %
06.05.2015 00:15 19,3 C 61 % 1010,1 hPa 0,0 l/m 5,8 km/h (2 Bft) SW 230 0 min 0,000 mm 0,0 UV-I 0 W/m 11,6 C 19,3 C 7,9 km/h (2 Bft) 0,00 %
06.05.2015 00:30 18,3 C 67 % 1010,2 hPa 0,0 l/m 0,0 km/h (0 Bft) S 190 0 min 0,000 mm 0,0 UV-I 0 W/m 12,1 C 18,3 C 0,0 km/h (0 Bft) 0,00 %
06.05.2015 00:45 17,8 C 69 % 1010,4 hPa 0,0 l/m 2,2 km/h (1 Bft) W-SW 255 0 min 0,000 mm 0,0 UV-I 0 W/m 12,0 C 17,8 C 4,0 km/h (1 Bft) 0,00 %
06.05.2015 01:00 17,4 C 71 % 1010,7 hPa 0,0 l/m 13,3 km/h (3 Bft) W-SW 251 0 min 0,000 mm 0,0 UV-I 0 W/m 12,1 C 14,6 C 15,8 km/h (3 Bft) 0,00 %
06.05.2015 01:15 17,1 C 71 % 1011,2 hPa 0,0 l/m 0,4 km/h (0 Bft) SW 222 0 min 0,000 mm 0,0 UV-I 0 W/m 11,8 C 17,1 C 4,0 km/h (1 Bft) 0,00 %
06.05.2015 01:30 16,9 C 71 % 1011,2 hPa 0,0 l/m 0,0 km/h (0 Bft) S-SW 207 0 min 0,000 mm 0,0 UV-I 0 W/m 11,6 C 16,9 C 0,0 km/h (0 Bft) 0,00 %
06.05.2015 01:45 16,8 C 70 % 1011,3 hPa 0,0 l/m 7,2 km/h (2 Bft) W-SW 251 0 min 0,000 mm 0,0 UV-I 0 W/m 11,3 C 16,4 C 7,9 km/h (2 Bft) 0,00 %
06.05.2015 02:00 16,6 C 72 % 1011,2 hPa 0,0 l/m 0,7 km/h (0 Bft) SO 131 0 min 0,000 mm 0,0 UV-I 0 W/m 11,5 C 16,6 C 4,0 km/h (1 Bft) 0,00 %
06.05.2015 02:15 16,4 C 74 % 1011,4 hPa 0,0 l/m 0,0 km/h (0 Bft) W-SW 251 0 min 0,000 mm 0,0 UV-I 0 W/m 11,8 C 16,4 C 0,0 km/h (0 Bft) 0,00 %
06.05.2015 02:30 16,2 C 75 % 1011,2 hPa 0,0 l/m 0,0 km/h (0 Bft) S 181 0 min 0,000 mm 0,0 UV-I 0 W/m 11,8 C 16,2 C 0,0 km/h (0 Bft) 0,00 %
06.05.2015 02:45 16,1 C 75 % 1011,2 hPa 0,0 l/m 0,0 km/h (0 Bft) S 173 0 min 0,000 mm 0,0 UV-I 0 W/m 11,7 C 16,1 C 0,0 km/h (0 Bft) 0,00 %
06.05.2015 03:00 16,0 C 76 % 1011,2 hPa 0,0 l/m 0,0 km/h (0 Bft) S-SW 211 0 min 0,000 mm 0,0 UV-I 0 W/m 11,8 C 16,0 C 0,0 km/h (0 Bft) 0,00 %
06.05.2015 03:15 15,9 C 76 % 1011,4 hPa 0,0 l/m 2,2 km/h (1 Bft) W-SW 253 0 min 0,000 mm 0,0 UV-I 0 W/m 11,7 C 15,9 C 4,0 km/h (1 Bft) 0,00 %
06.05.2015 03:30 16,0 C 76 % 1011,3 hPa 0,0 l/m 1,8 km/h (1 Bft) S 187 0 min 0,000 mm 0,0 UV-I 0 W/m 11,8 C 16,0 C 4,0 km/h (1 Bft) 0,00 %
06.05.2015 03:45 15,9 C 77 % 1011,6 hPa 0,0 l/m 1,4 km/h (1 Bft) W-SW 256 0 min 0,000 mm 0,0 UV-I 0 W/m 11,9 C 15,9 C 4,0 km/h (1 Bft) 0,00 %
06.05.2015 04:00 15,8 C 78 % 1011,8 hPa 0,0 l/m 0,0 km/h (0 Bft) SW 227 0 min 0,000 mm 0,0 UV-I 0 W/m 12,0 C 15,8 C 0,0 km/h (0 Bft) 0,00 %
06.05.2015 04:15 15,7 C 79 % 1011,8 hPa 0,0 l/m 0,7 km/h (0 Bft) SW 220 0 min 0,000 mm 0,0 UV-I 0 W/m 12,1 C 15,7 C 4,0 km/h (1 Bft) 0,00 %
06.05.2015 04:30 15,6 C 80 % 1011,7 hPa 0,0 l/m 0,0 km/h (0 Bft) SO 129 0 min 0,000 mm 0,0 UV-I 0 W/m 12,2 C 15,6 C 0,0 km/h (0 Bft) 0,00 %
06.05.2015 04:45 15,5 C 81 % 1011,6 hPa 0,0 l/m 0,0 km/h (0 Bft) S-SW 206 0 min 0,000 mm 0,0 UV-I 0 W/m 12,3 C 15,5 C 0,0 km/h (0 Bft) 0,00 %
06.05.2015 05:00 15,4 C 82 % 1011,7 hPa 0,0 l/m 0,0 km/h (0 Bft) S 186 0 min 0,000 mm 0,0 UV-I 0 W/m 12,3 C 15,4 C 0,0 km/h (0 Bft) 0,00 %
06.05.2015 05:15 15,3 C 83 % 1011,6 hPa 0,0 l/m 0,0 km/h (0 Bft) S-SW 198 0 min 0,000 mm 0,0 UV-I 0 W/m 12,4 C 15,3 C 0,0 km/h (0 Bft) 0,00 %
06.05.2015 05:30 15,2 C 83 % 1011,5 hPa 0,0 l/m 0,0 km/h (0 Bft) S 180 0 min 0,000 mm 0,0 UV-I 0 W/m 12,3 C 15,2 C 0,0 km/h (0 Bft) 0,00 %
06.05.2015 05:45 15,1 C 84 % 1011,6 hPa 0,0 l/m 0,0 km/h (0 Bft) S 180 0 min 0,000 mm 0,0 UV-I 0 W/m 12,4 C 15,1 C 0,0 km/h (0 Bft) 0,00 %
06.05.2015 06:00 15,0 C 85 % 1011,6 hPa 0,0 l/m 0,0 km/h (0 Bft) S 182 0 min 0,000 mm 0,0 UV-I 0 W/m 12,5 C 15,0 C 0,0 km/h (0 Bft) 0,00 %
06.05.2015 06:15 15,1 C 86 % 1012,0 hPa 0,0 l/m 0,0 km/h (0 Bft) S 182 0 min 0,000 mm 0,0 UV-I 4 W/m 12,8 C 15,1 C 0,0 km/h (0 Bft) 0,00 %
06.05.2015 06:30 15,1 C 86 % 1012,0 hPa 0,0 l/m 0,4 km/h (0 Bft) W-SW 256 0 min 0,000 mm 0,0 UV-I 10 W/m 12,8 C 15,1 C 4,0 km/h (1 Bft) 0,00 %
06.05.2015 06:45 15,2 C 86 % 1012,3 hPa 0,0 l/m 0,4 km/h (0 Bft) W-SW 253 0 min 0,000 mm 0,0 UV-I 16 W/m 12,9 C 15,2 C 4,0 km/h (1 Bft) 0,00 %
06.05.2015 07:00 15,2 C 86 % 1011,9 hPa 0,0 l/m 0,0 km/h (0 Bft) SW 219 0 min 0,000 mm 0,0 UV-I 15 W/m 12,9 C 15,2 C 0,0 km/h (0 Bft) 0,00 %
06.05.2015 07:15 15,2 C 86 % 1011,9 hPa 0,0 l/m 0,4 km/h (0 Bft) W-SW 241 0 min 0,000 mm 0,0 UV-I 31 W/m 12,9 C 15,2 C 4,0 km/h (1 Bft) 0,00 %
06.05.2015 07:30 15,2 C 86 % 1012,1 hPa 0,0 l/m 0,0 km/h (0 Bft) S 185 0 min 0,000 mm 0,0 UV-I 45 W/m 12,9 C 15,2 C 0,0 km/h (0 Bft) 0,00 %
06.05.2015 07:45 15,3 C 86 % 1012,0 hPa 0,0 l/m 0,0 km/h (0 Bft) SW 219 0 min 0,000 mm 0,0 UV-I 52 W/m 13,0 C 15,3 C 0,0 km/h (0 Bft) 0,00 %
06.05.2015 08:00 15,3 C 86 % 1012,2 hPa 0,0 l/m 0,0 km/h (0 Bft) S-SW 197 0 min 0,000 mm 1,0 UV-I 59 W/m 13,0 C 15,3 C 0,0 km/h (0 Bft) 0,00 %
06.05.2015 08:15 15,3 C 85 % 1012,1 hPa 0,0 l/m 0,0 km/h (0 Bft) S-SW 206 0 min 0,000 mm 1,0 UV-I 89 W/m 12,8 C 15,3 C 0,0 km/h (0 Bft) 0,00 %
06.05.2015 08:30 15,5 C 84 % 1012,0 hPa 0,0 l/m 0,0 km/h (0 Bft) S 185 0 min 0,000 mm 1,0 UV-I 85 W/m 12,8 C 15,5 C 0,0 km/h (0 Bft) 0,00 %
06.05.2015 08:45 15,6 C 84 % 1012,0 hPa 0,0 l/m 0,0 km/h (0 Bft) S-SW 196 0 min 0,000 mm 1,0 UV-I 100 W/m 12,9 C 15,6 C 0,0 km/h (0 Bft) 0,00 %
06.05.2015 09:00 16,0 C 82 % 1011,7 hPa 0,0 l/m 0,0 km/h (0 Bft) S 191 0 min 0,000 mm 1,0 UV-I 136 W/m 12,9 C 16,0 C 0,0 km/h (0 Bft) 0,00 %
06.05.2015 09:15 16,2 C 81 % 1011,6 hPa 0,0 l/m 0,0 km/h (0 Bft) S-SW 205 0 min 0,000 mm 1,0 UV-I 154 W/m 12,9 C 16,2 C 0,0 km/h (0 Bft) 0,00 %
06.05.2015 09:30 16,2 C 82 % 1011,3 hPa 0,0 l/m 0,0 km/h (0 Bft) S-SW 195 0 min 0,000 mm 1,0 UV-I 143 W/m 13,1 C 16,2 C 0,0 km/h (0 Bft) 0,00 %
06.05.2015 09:45 16,5 C 80 % 1011,4 hPa 0,0 l/m 1,4 km/h (1 Bft) W-SW 254 0 min 0,000 mm 1,0 UV-I 172 W/m 13,0 C 16,5 C 4,0 km/h (1 Bft) 0,00 %
06.05.2015 10:00 16,9 C 79 % 1011,2 hPa 0,0 l/m 0,0 km/h (0 Bft) S-SW 201 0 min 0,000 mm 2,0 UV-I 190 W/m 13,2 C 16,9 C 0,0 km/h (0 Bft) 0,00 %
06.05.2015 10:15 17,4 C 79 % 1011,3 hPa 0,0 l/m 0,0 km/h (0 Bft) S-SW 193 0 min 0,000 mm 2,0 UV-I 239 W/m 13,7 C 17,4 C 0,0 km/h (0 Bft) 0,00 %
06.05.2015 10:30 17,7 C 77 % 1011,3 hPa 0,0 l/m 0,0 km/h (0 Bft) S 180 0 min 0,000 mm 2,0 UV-I 224 W/m 13,6 C 17,7 C 0,0 km/h (0 Bft) 0,00 %
06.05.2015 10:45 18,7 C 72 % 1010,9 hPa 0,0 l/m 0,0 km/h (0 Bft) SW 217 0 min 0,000 mm 2,0 UV-I 346 W/m 13,5 C 18,7 C 0,0 km/h (0 Bft) 0,00 %
06.05.2015 11:00 18,7 C 74 % 1011,0 hPa 0,0 l/m 1,4 km/h (1 Bft) W-NW 301 0 min 0,000 mm 2,0 UV-I 330 W/m 14,0 C 18,7 C 4,0 km/h (1 Bft) 0,00 %
06.05.2015 11:15 17,8 C 76 % 1011,5 hPa 0,0 l/m 0,0 km/h (0 Bft) W-SW 240 0 min 0,000 mm 1,0 UV-I 239 W/m 13,5 C 17,8 C 0,0 km/h (0 Bft) 0,00 %
06.05.2015 11:30 17,1 C 80 % 1012,0 hPa 0,0 l/m 0,0 km/h (0 Bft) S-SO 163 0 min 0,000 mm 1,0 UV-I 118 W/m 13,6 C 17,1 C 0,0 km/h (0 Bft) 0,00 %
06.05.2015 11:45 15,9 C 84 % 1012,9 hPa 0,0 l/m 0,7 km/h (0 Bft) W-SW 253 0 min 0,000 mm 0,0 UV-I 39 W/m 13,2 C 15,9 C 4,0 km/h (1 Bft) 0,00 %
06.05.2015 12:00 14,9 C 90 % 1013,6 hPa 5,1 l/m 8,3 km/h (2 Bft) W 277 0 min 0,000 mm 1,0 UV-I 344 W/m 13,3 C 13,8 C 11,9 km/h (2 Bft) 0,00 %
06.05.2015 12:15 13,2 C 91 % 1013,5 hPa 0,0 l/m 2,9 km/h (1 Bft) N-NW 333 0 min 0,000 mm 1,0 UV-I 179 W/m 11,8 C 13,2 C 7,9 km/h (2 Bft) 0,00 %
06.05.2015 12:30 13,1 C 89 % 1013,3 hPa 0,0 l/m 5,8 km/h (2 Bft) NW 312 0 min 0,000 mm 2,0 UV-I 0 W/m 11,3 C 13,1 C 11,9 km/h (2 Bft) 0,00 %
06.05.2015 12:45 13,1 C 85 % 1013,1 hPa 0,0 l/m 0,7 km/h (0 Bft) NW 318 0 min 0,000 mm 1,0 UV-I 0 W/m 10,6 C 13,1 C 4,0 km/h (1 Bft) 0,00 %
06.05.2015 13:00 12,9 C 88 % 1014,7 hPa 0,9 l/m 2,2 km/h (1 Bft) W-SW 256 0 min 0,000 mm 3,0 UV-I 0 W/m 11,0 C 12,9 C 7,9 km/h (2 Bft) 0,00 %
06.05.2015 13:15 13,1 C 92 % 1014,8 hPa 1,5 l/m 2,2 km/h (1 Bft) W 281 0 min 0,000 mm 2,0 UV-I 0 W/m 11,8 C 13,1 C 7,9 km/h (2 Bft) 0,00 %
06.05.2015 13:30 13,3 C 91 % 1014,6 hPa 0,0 l/m 3,2 km/h (1 Bft) W-NW 289 0 min 0,000 mm 1,0 UV-I 0 W/m 11,9 C 13,3 C 7,9 km/h (2 Bft) 0,00 %
06.05.2015 13:45 13,7 C 90 % 1015,8 hPa 0,0 l/m 0,7 km/h (0 Bft) SO 124 0 min 0,000 mm 1,0 UV-I 0 W/m 12,1 C 13,7 C 4,0 km/h (1 Bft) 0,00 %
06.05.2015 14:00 13,4 C 91 % 1015,3 hPa 0,6 l/m 0,4 km/h (0 Bft) SW 218 0 min 0,000 mm 4,0 UV-I 0 W/m 12,0 C 13,4 C 4,0 km/h (1 Bft) 0,00 %
06.05.2015 14:15 14,1 C 88 % 1015,4 hPa 0,3 l/m 3,2 km/h (1 Bft) SW 232 15 min 0,000 mm 2,0 UV-I 473 W/m 12,1 C 14,1 C 4,0 km/h (1 Bft) 0,00 %
06.05.2015 14:30 14,1 C 86 % 1015,7 hPa 0,0 l/m 0,0 km/h (0 Bft) S-SW 202 0 min 0,000 mm 1,0 UV-I 224 W/m 11,8 C 14,1 C 0,0 km/h (0 Bft) 0,00 %
06.05.2015 14:45 13,5 C 87 % 1016,1 hPa 0,0 l/m 1,4 km/h (1 Bft) S 175 0 min 0,000 mm 1,0 UV-I 124 W/m 11,4 C 13,5 C 4,0 km/h (1 Bft) 0,00 %
06.05.2015 15:00 13,3 C 88 % 1016,0 hPa 0,0 l/m 0,7 km/h (0 Bft) SW 224 0 min 0,000 mm 1,0 UV-I 113 W/m 11,4 C 13,3 C 4,0 km/h (1 Bft) 0,00 %
06.05.2015 15:15 13,6 C 87 % 1016,2 hPa 0,0 l/m 1,4 km/h (1 Bft) W-SW 254 0 min 0,000 mm 1,0 UV-I 120 W/m 11,5 C 13,6 C 4,0 km/h (1 Bft) 0,00 %
06.05.2015 15:30 13,7 C 84 % 1016,4 hPa 0,0 l/m 0,0 km/h (0 Bft) S-SW 201 0 min 0,000 mm 1,0 UV-I 132 W/m 11,0 C 13,7 C 0,0 km/h (0 Bft) 0,00 %
06.05.2015 15:45 13,4 C 84 % 1016,6 hPa 0,0 l/m 0,0 km/h (0 Bft) S 178 0 min 0,000 mm 1,0 UV-I 80 W/m 10,8 C 13,4 C 0,0 km/h (0 Bft) 0,00 %
06.05.2015 16:00 13,2 C 87 % 1016,7 hPa 0,0 l/m 0,0 km/h (0 Bft) S 189 0 min 0,000 mm 1,0 UV-I 49 W/m 11,1 C 13,2 C 0,0 km/h (0 Bft) 0,00 %
06.05.2015 16:15 13,0 C 87 % 1016,6 hPa 0,0 l/m 0,0 km/h (0 Bft) SW 229 0 min 0,000 mm 1,0 UV-I 100 W/m 10,9 C 13,0 C 0,0 km/h (0 Bft) 0,00 %
06.05.2015 16:30 12,9 C 87 % 1016,3 hPa 0,0 l/m 1,4 km/h (1 Bft) SW 223 0 min 0,000 mm 1,0 UV-I 99 W/m 10,8 C 12,9 C 4,0 km/h (1 Bft) 0,00 %
06.05.2015 16:45 13,2 C 87 % 1016,6 hPa 0,0 l/m 0,0 km/h (0 Bft) SW 226 0 min 0,000 mm 1,0 UV-I 143 W/m 11,1 C 13,2 C 0,0 km/h (0 Bft) 0,00 %
06.05.2015 17:00 13,5 C 85 % 1016,6 hPa 0,0 l/m 0,0 km/h (0 Bft) W-SW 242 0 min 0,000 mm 1,0 UV-I 133 W/m 11,0 C 13,5 C 0,0 km/h (0 Bft) 0,00 %
06.05.2015 17:15 13,3 C 85 % 1016,8 hPa 0,0 l/m 0,4 km/h (0 Bft) SW 222 0 min 0,000 mm 1,0 UV-I 122 W/m 10,8 C 13,3 C 4,0 km/h (1 Bft) 0,00 %
06.05.2015 17:30 13,3 C 82 % 1016,7 hPa 0,0 l/m 0,0 km/h (0 Bft) S-SW 208 0 min 0,000 mm 1,0 UV-I 106 W/m 10,3 C 13,3 C 0,0 km/h (0 Bft) 0,00 %
06.05.2015 17:45 13,3 C 85 % 1016,4 hPa 0,0 l/m 1,4 km/h (1 Bft) W-SW 253 0 min 0,000 mm 1,0 UV-I 111 W/m 10,8 C 13,3 C 4,0 km/h (1 Bft) 0,00 %
06.05.2015 18:00 13,6 C 86 % 1016,6 hPa 0,0 l/m 0,0 km/h (0 Bft) W-SW 249 15 min 0,000 mm 1,0 UV-I 250 W/m 11,3 C 13,6 C 0,0 km/h (0 Bft) 0,00 %
06.05.2015 18:15 13,8 C 83 % 1016,6 hPa 0,0 l/m 0,0 km/h (0 Bft) SW 228 15 min 0,000 mm 1,0 UV-I 219 W/m 11,0 C 13,8 C 0,0 km/h (0 Bft) 0,00 %
06.05.2015 18:30 13,6 C 83 % 1016,6 hPa 0,0 l/m 0,0 km/h (0 Bft) S-SW 193 15 min 0,000 mm 1,0 UV-I 167 W/m 10,8 C 13,6 C 0,0 km/h (0 Bft) 0,00 %
06.05.2015 18:45 13,2 C 84 % 1016,7 hPa 0,0 l/m 0,0 km/h (0 Bft) S-SW 209 0 min 0,000 mm 1,0 UV-I 93 W/m 10,6 C 13,2 C 0,0 km/h (0 Bft) 0,00 %
06.05.2015 19:00 12,9 C 85 % 1016,4 hPa 0,0 l/m 0,0 km/h (0 Bft) W-SW 248 0 min 0,000 mm 0,0 UV-I 42 W/m 10,4 C 12,9 C 0,0 km/h (0 Bft) 0,00 %
06.05.2015 19:15 12,8 C 86 % 1016,3 hPa 0,0 l/m 1,8 km/h (1 Bft) NW 309 0 min 0,000 mm 1,0 UV-I 38 W/m 10,5 C 12,8 C 4,0 km/h (1 Bft) 0,00 %
06.05.2015 19:30 13,1 C 84 % 1016,8 hPa 0,0 l/m 8,3 km/h (2 Bft) W-SW 256 15 min 0,000 mm 0,0 UV-I 111 W/m 10,5 C 11,9 C 11,9 km/h (2 Bft) 0,00 %
06.05.2015 19:45 12,7 C 83 % 1016,9 hPa 0,0 l/m 0,4 km/h (0 Bft) NW 321 15 min 0,000 mm 0,0 UV-I 58 W/m 9,9 C 12,7 C 4,0 km/h (1 Bft) 0,00 %
06.05.2015 20:00 11,7 C 85 % 1017,0 hPa 0,0 l/m 0,0 km/h (0 Bft) S 178 15 min 0,000 mm 0,0 UV-I 31 W/m 9,3 C 11,7 C 0,0 km/h (0 Bft) 0,00 %
06.05.2015 20:15 11,2 C 88 % 1017,0 hPa 0,0 l/m 0,0 km/h (0 Bft) S 182 0 min 0,000 mm 0,0 UV-I 12 W/m 9,3 C 11,2 C 0,0 km/h (0 Bft) 0,00 %
06.05.2015 20:30 10,9 C 89 % 1017,2 hPa 0,0 l/m 0,0 km/h (0 Bft) SW 215 0 min 0,000 mm 0,0 UV-I 0 W/m 9,2 C 10,9 C 0,0 km/h (0 Bft) 0,00 %
06.05.2015 20:45 10,6 C 90 % 1017,3 hPa 0,0 l/m 0,0 km/h (0 Bft) S 187 0 min 0,000 mm 0,0 UV-I 0 W/m 9,0 C 10,6 C 0,0 km/h (0 Bft) 0,00 %
06.05.2015 21:00 10,4 C 92 % 1017,7 hPa 0,0 l/m 0,0 km/h (0 Bft) S-SW 202 0 min 0,000 mm 0,0 UV-I 0 W/m 9,2 C 10,4 C 0,0 km/h (0 Bft) 0,00 %
06.05.2015 21:15 10,1 C 92 % 1018,0 hPa 0,0 l/m 0,0 km/h (0 Bft) S 181 0 min 0,000 mm 0,0 UV-I 0 W/m 8,9 C 10,1 C 0,0 km/h (0 Bft) 0,00 %
06.05.2015 21:30 10,0 C 93 % 1018,1 hPa 0,0 l/m 0,0 km/h (0 Bft) S 186 0 min 0,000 mm 0,0 UV-I 0 W/m 8,9 C 10,0 C 0,0 km/h (0 Bft) 0,00 %
06.05.2015 21:45 9,6 C 94 % 1018,2 hPa 0,0 l/m 0,0 km/h (0 Bft) S 181 0 min 0,000 mm 0,0 UV-I 0 W/m 8,7 C 9,6 C 0,0 km/h (0 Bft) 0,00 %
06.05.2015 22:00 9,2 C 95 % 1018,1 hPa 0,0 l/m 0,0 km/h (0 Bft) S-SW 197 0 min 0,000 mm 0,0 UV-I 0 W/m 8,4 C 9,2 C 0,0 km/h (0 Bft) 0,00 %
06.05.2015 22:15 8,8 C 95 % 1018,2 hPa 0,0 l/m 0,0 km/h (0 Bft) S 183 0 min 0,000 mm 0,0 UV-I 0 W/m 8,0 C 8,8 C 0,0 km/h (0 Bft) 0,00 %
06.05.2015 22:30 8,6 C 95 % 1017,9 hPa 0,0 l/m 0,0 km/h (0 Bft) S 183 0 min 0,000 mm 0,0 UV-I 0 W/m 7,8 C 8,6 C 0,0 km/h (0 Bft) 0,00 %
06.05.2015 22:45 8,5 C 97 % 1018,4 hPa 0,0 l/m 0,0 km/h (0 Bft) S-SW 194 0 min 0,000 mm 0,0 UV-I 0 W/m 8,1 C 8,5 C 0,0 km/h (0 Bft) 0,00 %
06.05.2015 23:00 8,3 C 97 % 1018,4 hPa 0,0 l/m 0,0 km/h (0 Bft) SO 146 0 min 0,000 mm 0,0 UV-I 0 W/m 7,9 C 8,3 C 0,0 km/h (0 Bft) 0,00 %
06.05.2015 23:15 8,2 C 97 % 1018,6 hPa 0,0 l/m 0,0 km/h (0 Bft) S 184 0 min 0,000 mm 0,0 UV-I 0 W/m 7,8 C 8,2 C 0,0 km/h (0 Bft) 0,00 %
06.05.2015 23:30 7,9 C 97 % 1018,5 hPa 0,0 l/m 0,0 km/h (0 Bft) S-SW 197 0 min 0,000 mm 0,0 UV-I 0 W/m 7,5 C 7,9 C 0,0 km/h (0 Bft) 0,00 %
06.05.2015 23:45 7,9 C 98 % 1018,5 hPa 0,0 l/m 0,0 km/h (0 Bft) S 180 0 min 0,000 mm 0,0 UV-I 0 W/m 7,6 C 7,9 C 0,0 km/h (0 Bft) 0,00 %
_ Min-Zeit 23:30 00:00 00:00 - 00:30 - - - - - - 23:30 23:30 00:30 00:00
Minimum _ 7,9 C 59 % 1009,8 hPa - 0,0 km/h (0 Bft) - - - - - - 7,5 C 7,9 C 0,0 km/h (0 Bft) 0,00 %
_ Max-Zeit 00:00 23:45 23:15 12:00 01:00 - - 14:15 00:00 14:00 14:15 11:00 00:00 01:00 00:00
Maximum _ 19,9 C 98 % 1018,6 hPa 5,1 l/m 13,3 km/h
W-SW (3 Bft)
- - 15 min 0,000 mm 4,0 UV-I 473 W/m 14,0 C 19,9 C 15,8 km/h
W-SW (3 Bft)
0,00 %
Durchschnitt _ 14,2 C 84 % 1014,0 hPa #8,4 l/m 0,9 km/h (0 Bft) W-SW - #1:45 h #0,000 mm 1,3 UV-I 130 W/m 11,4 C 14,1 C 2,1 km/h (1 Bft) 0,00 %